createdAt,value
2018-10-17T00:02:22.682Z,13.83
2018-10-17T00:04:51.509Z,15.30
2018-10-17T00:07:20.321Z,13.27
2018-10-17T00:09:49.138Z,14.17
2018-10-17T00:12:17.951Z,11.70
2018-10-17T00:14:46.770Z,12.30
2018-10-17T00:17:15.591Z,15.47
2018-10-17T00:19:44.406Z,17.03
2018-10-17T00:22:13.218Z,14.37
2018-10-17T00:24:42.034Z,15.77
2018-10-17T00:27:10.849Z,11.73
2018-10-17T00:29:46.302Z,15.57
2018-10-17T00:32:15.114Z,16.03
2018-10-17T00:34:43.942Z,12.97
2018-10-17T00:37:12.815Z,16.63
2018-10-17T00:39:41.575Z,9.97
2018-10-17T00:42:10.379Z,14.60
2018-10-17T00:44:39.191Z,15.90
2018-10-17T00:47:08.015Z,12.87
2018-10-17T00:49:36.915Z,16.43
2018-10-17T00:52:05.734Z,14.37
2018-10-17T00:54:34.558Z,14.63
2018-10-17T00:57:03.359Z,15.40
2018-10-17T00:59:32.174Z,15.33
2018-10-17T01:02:00.982Z,14.10
2018-10-17T01:04:29.807Z,11.70
2018-10-17T01:06:58.677Z,11.63
2018-10-17T01:09:27.438Z,11.73
2018-10-17T01:11:56.243Z,17.97
2018-10-17T01:14:25.068Z,27.53
2018-10-17T01:16:53.893Z,21.70
2018-10-17T01:19:22.710Z,16.37
2018-10-17T01:21:51.518Z,17.33
2018-10-17T01:24:20.339Z,17.63
2018-10-17T01:26:49.162Z,22.30
2018-10-17T01:29:18.005Z,25.60
2018-10-17T01:31:46.806Z,17.27
2018-10-17T01:34:15.678Z,14.23
2018-10-17T01:36:44.490Z,17.60
2018-10-17T01:39:13.318Z,18.83
2018-10-17T01:41:42.140Z,13.47
2018-10-17T01:44:10.962Z,10.97
2018-10-17T01:46:39.771Z,15.17
2018-10-17T01:49:08.665Z,11.77
2018-10-17T01:51:37.446Z,13.60
2018-10-17T01:54:06.279Z,13.40
2018-10-17T01:56:35.093Z,11.33
2018-10-17T01:59:03.949Z,13.93
2018-10-17T02:01:32.767Z,16.43
2018-10-17T02:04:01.582Z,14.03
2018-10-17T02:06:30.454Z,16.83
2018-10-17T02:08:59.268Z,15.33
2018-10-17T02:11:28.085Z,20.43
2018-10-17T02:13:56.897Z,13.67
2018-10-17T02:16:25.712Z,14.13
2018-10-17T02:18:54.567Z,15.27
2018-10-17T02:21:23.341Z,17.60
2018-10-17T02:23:52.145Z,14.33
2018-10-17T02:26:20.953Z,15.43
2018-10-17T02:28:49.774Z,19.63
2018-10-17T02:31:18.650Z,12.90
2018-10-17T02:33:47.418Z,15.93
2018-10-17T02:36:16.407Z,14.17
2018-10-17T02:38:45.279Z,16.07
2018-10-17T02:41:14.155Z,12.47
2018-10-17T02:43:42.897Z,11.03
2018-10-17T02:46:11.705Z,15.30
2018-10-17T02:48:40.521Z,12.97
2018-10-17T02:51:09.334Z,15.57
2018-10-17T02:53:38.139Z,13.87
2018-10-17T02:56:06.958Z,15.70
2018-10-17T02:58:35.775Z,15.87
2018-10-17T03:01:04.825Z,11.43
2018-10-17T03:03:33.601Z,14.10
2018-10-17T03:06:02.410Z,14.47
2018-10-17T03:08:31.219Z,11.67
2018-10-17T03:11:00.037Z,12.17
2018-10-17T03:13:28.844Z,13.40
2018-10-17T03:15:57.662Z,19.10
2018-10-17T03:18:26.474Z,14.30
2018-10-17T03:20:55.331Z,13.20
2018-10-17T03:23:24.154Z,21.73
2018-10-17T03:25:52.971Z,13.13
2018-10-17T03:28:22.284Z,13.90
2018-10-17T03:30:51.154Z,16.43
2018-10-17T03:33:19.911Z,13.87
2018-10-17T03:35:48.750Z,13.23
2018-10-17T03:38:17.823Z,13.17
2018-10-17T03:40:46.637Z,12.50
2018-10-17T03:43:15.557Z,12.60
2018-10-17T03:45:44.281Z,12.97
2018-10-17T03:48:13.094Z,14.07
2018-10-17T03:50:41.899Z,11.47
2018-10-17T03:53:10.759Z,14.30
2018-10-17T03:55:39.539Z,17.13
2018-10-17T03:58:08.367Z,23.83
2018-10-17T04:00:37.173Z,20.20
2018-10-17T04:03:06.048Z,18.17
2018-10-17T04:05:34.844Z,20.97
2018-10-17T04:08:03.859Z,17.50
2018-10-17T04:10:32.767Z,17.83
2018-10-17T04:13:01.600Z,18.33
2018-10-17T04:15:30.391Z,14.30
2018-10-17T04:17:59.265Z,15.13
2018-10-17T04:20:28.094Z,11.97
2018-10-17T04:22:57.398Z,13.77
2018-10-17T04:25:26.161Z,16.23
2018-10-17T04:27:55.343Z,13.33
2018-10-17T04:30:24.315Z,14.93
2018-10-17T04:32:53.142Z,13.90
2018-10-17T04:35:21.963Z,15.03
2018-10-17T04:37:50.772Z,16.07
2018-10-17T04:40:19.585Z,13.00
2018-10-17T04:42:48.416Z,13.90
2018-10-17T04:45:17.234Z,12.20
2018-10-17T04:47:46.119Z,15.07
2018-10-17T04:50:14.945Z,12.97
2018-10-17T04:52:43.775Z,17.93
2018-10-17T04:55:12.668Z,13.83
2018-10-17T04:57:41.398Z,13.17
2018-10-17T05:00:12.321Z,14.50
2018-10-17T05:02:42.365Z,15.50
2018-10-17T05:05:11.660Z,15.23
2018-10-17T05:07:40.402Z,19.27
2018-10-17T05:10:09.219Z,23.67
2018-10-17T05:15:50.909Z,14.40
2018-10-17T05:18:19.858Z,27.70
2018-10-17T05:20:48.751Z,13.47
2018-10-17T05:23:42.577Z,12.73
2018-10-17T05:29:25.817Z,11.87
2018-10-17T05:31:54.657Z,15.90
2018-10-17T05:34:24.473Z,17.57
2018-10-17T05:36:53.321Z,13.57
2018-10-17T05:39:22.603Z,13.40
2018-10-17T05:41:51.417Z,13.30
2018-10-17T05:44:20.322Z,15.90
2018-10-17T05:46:49.086Z,14.50
2018-10-17T05:49:17.895Z,11.20
2018-10-17T05:51:46.819Z,14.90
2018-10-17T05:54:15.993Z,13.67
2018-10-17T05:56:44.799Z,11.43
2018-10-17T05:59:13.701Z,18.67
2018-10-17T06:01:47.315Z,13.03
2018-10-17T06:04:15.932Z,18.60
2018-10-17T06:06:44.770Z,15.53
2018-10-17T06:12:14.408Z,17.03
2018-10-17T06:14:47.180Z,11.73
2018-10-17T06:17:16.058Z,17.27
2018-10-17T06:23:10.135Z,23.40
2018-10-17T06:25:50.963Z,17.07
2018-10-17T06:28:19.820Z,16.93
2018-10-17T06:33:49.033Z,13.37
2018-10-17T06:36:17.771Z,25.40
2018-10-17T06:38:46.615Z,20.50
2018-10-17T06:47:13.941Z,12.30
2018-10-17T06:49:42.629Z,10.37
2018-10-17T06:52:11.461Z,12.00
2018-10-17T06:54:40.275Z,9.83
2018-10-17T06:57:09.091Z,13.00
2018-10-17T06:59:37.905Z,9.27
2018-10-17T07:02:06.721Z,10.80
2018-10-17T07:04:35.533Z,10.73
2018-10-17T07:07:04.385Z,10.03
2018-10-17T07:09:33.175Z,10.13
2018-10-17T07:12:01.991Z,12.97
2018-10-17T07:14:30.815Z,10.73
2018-10-17T07:17:00.314Z,11.50
2018-10-17T07:19:29.367Z,11.73
2018-10-17T07:21:58.649Z,10.20
2018-10-17T07:24:27.465Z,9.50
2018-10-17T07:26:56.370Z,9.73
2018-10-17T07:29:25.300Z,9.73
2018-10-17T07:31:53.999Z,9.47
2018-10-17T07:34:22.904Z,8.30
2018-10-17T07:36:51.736Z,9.87
2018-10-17T07:39:20.555Z,11.83
2018-10-17T07:41:49.737Z,10.97
2018-10-17T07:44:18.613Z,9.17
2018-10-17T07:46:47.443Z,8.63
2018-10-17T07:49:16.371Z,10.07
2018-10-17T07:51:45.549Z,12.70
2018-10-17T07:54:14.427Z,9.43
2018-10-17T07:56:43.265Z,8.73
2018-10-17T07:59:12.702Z,7.90
2018-10-17T08:01:41.522Z,11.70
2018-10-17T08:04:10.332Z,10.97
2018-10-17T08:06:39.206Z,11.43
2018-10-17T08:09:09.323Z,10.03
2018-10-17T08:11:38.179Z,12.53
2018-10-17T08:14:07.233Z,11.13
2018-10-17T08:16:36.153Z,8.20
2018-10-17T08:19:05.254Z,8.90
2018-10-17T08:21:34.341Z,15.13
2018-10-17T08:24:03.075Z,9.03
2018-10-17T08:26:31.867Z,8.23
2018-10-17T08:29:00.687Z,8.93
2018-10-17T08:31:29.824Z,8.23
2018-10-17T08:33:58.824Z,9.80
2018-10-17T08:36:27.896Z,10.00
2018-10-17T08:38:56.817Z,8.47
2018-10-17T08:41:25.647Z,8.83
2018-10-17T08:43:54.889Z,10.20
2018-10-17T08:46:23.693Z,19.83
2018-10-17T08:48:52.518Z,8.03
2018-10-17T08:51:21.355Z,10.40
2018-10-17T08:53:50.203Z,8.43
2018-10-17T08:56:19.040Z,7.57
2018-10-17T08:58:48.295Z,10.50
2018-10-17T09:01:17.203Z,13.97
2018-10-17T09:03:46.040Z,8.47
2018-10-17T09:06:14.911Z,8.10
2018-10-17T09:08:43.669Z,8.50
2018-10-17T09:11:12.487Z,10.67
2018-10-17T09:13:41.410Z,8.33
2018-10-17T09:16:10.246Z,9.97
2018-10-17T09:18:39.036Z,13.07
2018-10-17T09:21:08.189Z,8.07
2018-10-17T09:23:37.002Z,8.30
2018-10-17T09:26:05.821Z,9.40
2018-10-17T09:28:35.023Z,11.53
2018-10-17T09:31:04.097Z,7.97
2018-10-17T09:33:33.556Z,14.50
2018-10-17T09:36:02.582Z,10.33
2018-10-17T09:38:31.461Z,8.47
2018-10-17T09:41:00.277Z,10.70
2018-10-17T09:43:29.323Z,8.80
2018-10-17T09:45:58.328Z,7.40
2018-10-17T09:48:27.083Z,7.30
2018-10-17T09:50:56.175Z,16.60
2018-10-17T09:53:25.104Z,10.90
2018-10-17T09:55:53.822Z,7.50
2018-10-17T09:58:22.625Z,7.70
2018-10-17T10:00:56.845Z,7.40
2018-10-17T10:03:25.657Z,10.63
2018-10-17T10:05:54.605Z,9.00
2018-10-17T10:08:23.357Z,11.97
2018-10-17T10:10:52.231Z,14.10
2018-10-17T10:13:21.011Z,7.23
2018-10-17T10:15:49.820Z,7.87
2018-10-17T10:18:18.638Z,9.23
2018-10-17T10:20:47.469Z,10.13
2018-10-17T10:23:16.338Z,8.77
2018-10-17T10:25:45.094Z,7.87
2018-10-17T10:28:13.962Z,7.67
2018-10-17T10:30:42.713Z,9.10
2018-10-17T10:33:11.564Z,8.37
2018-10-17T10:35:40.398Z,11.43
2018-10-17T10:38:09.215Z,8.53
2018-10-17T10:40:38.109Z,8.43
2018-10-17T10:43:06.867Z,11.77
2018-10-17T10:45:35.843Z,11.80
2018-10-17T10:48:04.662Z,8.70
2018-10-17T10:50:33.467Z,8.63
2018-10-17T10:53:02.369Z,14.70
2018-10-17T10:55:31.138Z,9.07
2018-10-17T10:57:59.966Z,11.97
2018-10-17T11:00:28.773Z,8.90
2018-10-17T11:02:57.619Z,8.60
2018-10-17T11:05:26.517Z,9.13
2018-10-17T11:07:55.240Z,13.13
2018-10-17T11:10:24.067Z,10.27
2018-10-17T11:12:52.945Z,8.97
2018-10-17T11:15:21.944Z,8.83
2018-10-17T11:17:50.762Z,12.37
2018-10-17T11:20:19.574Z,12.07
2018-10-17T11:22:48.422Z,10.97
2018-10-17T11:25:17.231Z,9.60
2018-10-17T11:27:46.067Z,13.23
2018-10-17T11:30:14.968Z,9.70
2018-10-17T11:32:43.847Z,10.93
2018-10-17T11:35:14.710Z,8.87
2018-10-17T11:37:43.479Z,8.60
2018-10-17T11:40:12.429Z,9.03
2018-10-17T11:42:41.211Z,11.63
2018-10-17T11:45:10.091Z,9.77
2018-10-17T11:47:41.890Z,10.73
2018-10-17T11:56:10.697Z,13.77
2018-10-17T11:58:39.550Z,10.50
2018-10-17T12:01:08.400Z,10.13
2018-10-17T12:03:37.280Z,9.60
2018-10-17T12:06:06.339Z,14.13
2018-10-17T12:08:35.065Z,11.60
2018-10-17T12:11:03.914Z,10.03
2018-10-17T12:13:32.811Z,11.63
2018-10-17T12:16:01.643Z,12.20
2018-10-17T12:18:30.966Z,8.47
2018-10-17T12:20:59.832Z,12.70
2018-10-17T12:26:28.923Z,10.23
2018-10-17T12:28:57.987Z,13.87
2018-10-17T12:31:26.829Z,17.10
2018-10-17T12:33:55.646Z,12.47
2018-10-17T12:36:24.589Z,9.63
2018-10-17T12:38:53.576Z,10.13
2018-10-17T12:41:22.663Z,10.87
2018-10-17T12:43:51.502Z,13.20
2018-10-17T12:46:20.408Z,13.17
2018-10-17T12:48:49.347Z,9.53
2018-10-17T12:51:18.183Z,12.30
2018-10-17T12:53:47.278Z,12.03
2018-10-17T12:56:16.321Z,10.00
2018-10-17T12:58:45.133Z,12.50
2018-10-17T13:01:14.007Z,10.77
2018-10-17T13:03:42.795Z,10.23
2018-10-17T13:06:11.624Z,10.37
2018-10-17T13:08:40.463Z,12.93
2018-10-17T13:11:09.495Z,11.13
2018-10-17T13:13:38.226Z,11.27
2018-10-17T13:16:07.115Z,9.40
2018-10-17T13:18:35.955Z,13.37
2018-10-17T13:21:04.875Z,10.47
2018-10-17T13:23:33.727Z,10.13
2018-10-17T13:26:02.626Z,13.63
2018-10-17T13:28:31.475Z,10.10
2018-10-17T13:31:00.337Z,12.97
2018-10-17T13:33:29.148Z,9.43
2018-10-17T13:35:58.031Z,15.37
2018-10-17T13:38:26.864Z,12.87
2018-10-17T13:40:55.720Z,10.30
2018-10-17T13:43:24.531Z,9.93
2018-10-17T13:45:57.493Z,9.60
2018-10-17T13:48:26.302Z,8.50
2018-10-17T13:50:55.131Z,10.13
2018-10-17T13:53:23.965Z,9.37
2018-10-17T13:55:52.812Z,13.47
2018-10-17T13:58:21.821Z,9.03
2018-10-17T14:00:50.724Z,9.23
2018-10-17T14:03:19.802Z,12.43
2018-10-17T14:05:48.874Z,11.37
2018-10-17T14:08:17.846Z,11.97
2018-10-17T14:10:46.810Z,11.67
2018-10-17T14:13:15.733Z,11.97
2018-10-17T14:15:44.803Z,8.83
2018-10-17T14:18:13.830Z,9.27
2018-10-17T14:20:43.175Z,9.50
2018-10-17T14:23:12.221Z,8.87
2018-10-17T14:25:41.110Z,9.73
2018-10-17T14:28:10.131Z,11.17
2018-10-17T14:30:39.006Z,14.07
2018-10-17T14:33:07.983Z,9.57
2018-10-17T14:35:36.917Z,7.83
2018-10-17T14:38:06.184Z,13.37
2018-10-17T14:43:58.162Z,13.10
2018-10-17T14:46:45.277Z,9.70
2018-10-17T14:49:14.135Z,12.60
2018-10-17T14:52:02.927Z,9.53
2018-10-17T14:54:31.750Z,10.77
2018-10-17T14:57:00.615Z,10.17
2018-10-17T14:59:33.078Z,13.10
2018-10-17T15:02:01.926Z,8.77
2018-10-17T15:04:30.778Z,10.70
2018-10-17T15:06:59.613Z,9.87
2018-10-17T15:09:28.462Z,9.03
2018-10-17T15:11:57.408Z,8.20
2018-10-17T15:14:26.103Z,9.47
2018-10-17T15:16:55.042Z,11.67
2018-10-17T15:19:24.987Z,12.00
2018-10-17T15:21:53.943Z,11.10
2018-10-17T15:24:22.800Z,10.60
2018-10-17T15:26:51.636Z,11.83
2018-10-17T15:29:20.480Z,17.07
2018-10-17T15:31:49.483Z,13.53
2018-10-17T15:34:18.263Z,10.30
2018-10-17T15:36:47.146Z,13.47
2018-10-17T15:39:16.019Z,16.10
2018-10-17T15:41:44.774Z,16.37
2018-10-17T15:44:13.603Z,14.70
2018-10-17T15:46:42.457Z,10.33
2018-10-17T15:49:11.294Z,10.23
2018-10-17T15:51:45.721Z,13.47
2018-10-17T15:54:14.672Z,12.07
2018-10-17T15:56:43.414Z,12.20
2018-10-17T15:59:12.259Z,13.50
2018-10-17T16:01:41.086Z,12.40
2018-10-17T16:04:09.954Z,14.57
2018-10-17T16:06:38.791Z,12.83
2018-10-17T16:09:10.033Z,11.53
2018-10-17T16:11:38.970Z,13.27
2018-10-17T16:14:07.915Z,11.60
2018-10-17T16:16:52.808Z,15.47
2018-10-17T16:19:21.630Z,11.43
2018-10-17T16:21:50.461Z,12.03
2018-10-17T16:24:31.607Z,18.27
2018-10-17T16:27:00.502Z,15.87
2018-10-17T16:29:29.331Z,16.00
2018-10-17T16:31:58.174Z,17.87
2018-10-17T16:34:30.954Z,14.73
2018-10-17T16:36:59.796Z,15.80
2018-10-17T16:39:28.634Z,16.80
2018-10-17T16:42:01.067Z,16.80
2018-10-17T16:44:41.821Z,21.17
2018-10-17T16:47:11.121Z,18.57
2018-10-17T16:49:39.964Z,14.23
2018-10-17T16:52:08.803Z,15.00
2018-10-17T16:54:37.629Z,12.47
2018-10-17T16:57:07.435Z,15.33
2018-10-17T16:59:36.269Z,14.30
2018-10-17T17:02:05.902Z,16.63
2018-10-17T17:04:34.846Z,13.67
2018-10-17T17:07:03.676Z,14.33
2018-10-17T17:09:32.477Z,13.53
2018-10-17T17:12:01.421Z,13.50
2018-10-17T17:14:30.210Z,16.73
2018-10-17T17:16:59.008Z,19.03
2018-10-17T17:19:27.821Z,17.37
2018-10-17T17:21:56.655Z,23.83
2018-10-17T17:24:25.607Z,15.77
2018-10-17T17:26:54.477Z,14.20
2018-10-17T17:29:23.275Z,17.07
2018-10-17T17:37:52.750Z,14.53
2018-10-17T17:40:21.607Z,19.23
2018-10-17T17:42:50.451Z,16.57
2018-10-17T17:45:19.274Z,15.00
2018-10-17T17:51:01.285Z,19.23
2018-10-17T17:53:30.121Z,18.07
2018-10-17T17:55:58.979Z,16.30
2018-10-17T17:58:27.908Z,16.73
2018-10-17T18:00:56.673Z,16.43
2018-10-17T18:03:25.481Z,18.80
2018-10-17T18:05:57.910Z,17.60
2018-10-17T18:08:28.524Z,15.07
2018-10-17T18:11:01.888Z,16.37
2018-10-17T18:13:31.093Z,16.10
2018-10-17T18:16:00.184Z,13.53
2018-10-17T18:18:30.780Z,11.87
2018-10-17T18:20:59.910Z,20.97
2018-10-17T18:23:28.918Z,15.60
2018-10-17T18:25:57.803Z,14.17
2018-10-17T18:28:26.906Z,14.60
2018-10-17T18:30:56.031Z,15.50
2018-10-17T18:33:25.162Z,20.87
2018-10-17T18:35:56.056Z,18.07
2018-10-17T18:38:35.472Z,15.80
2018-10-17T18:41:04.319Z,19.33
2018-10-17T18:43:33.227Z,17.00
2018-10-17T18:46:02.080Z,17.07
2018-10-17T18:48:54.548Z,15.70
2018-10-17T18:51:23.393Z,15.03
2018-10-17T18:53:52.279Z,21.47
2018-10-17T18:56:21.207Z,20.33
2018-10-17T18:58:50.564Z,20.63
2018-10-17T19:01:19.507Z,19.20
2018-10-17T19:03:48.319Z,17.33
2018-10-17T19:06:17.241Z,18.63
2018-10-17T19:08:46.066Z,18.90
2018-10-17T19:11:15.096Z,18.87
2018-10-17T19:13:43.965Z,18.00
2018-10-17T19:16:12.850Z,15.30
2018-10-17T19:18:41.808Z,18.53
2018-10-17T19:21:22.098Z,19.47
2018-10-17T19:23:50.957Z,19.70
2018-10-17T19:26:20.412Z,17.67
2018-10-17T19:28:50.363Z,17.80
2018-10-17T19:31:19.198Z,17.27
2018-10-17T19:33:48.471Z,25.23
2018-10-17T19:36:23.022Z,17.93
2018-10-17T19:38:52.108Z,21.97
2018-10-17T19:41:20.951Z,17.53
2018-10-17T19:43:50.278Z,18.77
2018-10-17T19:46:19.795Z,15.17
2018-10-17T19:48:48.730Z,17.13
2018-10-17T19:51:18.948Z,26.33
2018-10-17T19:53:48.027Z,16.63
2018-10-17T19:56:31.364Z,19.33
2018-10-17T19:59:01.331Z,16.73
2018-10-17T20:01:33.947Z,18.20
2018-10-17T20:04:10.027Z,15.87
2018-10-17T20:06:44.654Z,14.60
2018-10-17T20:09:14.566Z,18.10
2018-10-17T20:11:43.514Z,16.30
2018-10-17T20:14:23.149Z,21.67
2018-10-17T20:16:52.490Z,15.97
2018-10-17T20:19:21.311Z,16.87
2018-10-17T20:21:50.291Z,17.43
2018-10-17T20:24:19.307Z,18.00
2018-10-17T20:26:53.997Z,27.00
2018-10-17T20:29:35.226Z,16.83
2018-10-17T20:32:04.459Z,17.23
2018-10-17T20:37:29.528Z,17.30
2018-10-17T20:39:58.363Z,23.37
2018-10-17T20:42:27.303Z,25.57
2018-10-17T20:45:07.004Z,23.87
2018-10-17T20:50:43.508Z,23.93
2018-10-17T20:53:25.291Z,20.80
2018-10-17T20:55:54.163Z,27.37
2018-10-17T20:58:23.255Z,20.43
2018-10-17T21:00:51.952Z,22.33
2018-10-17T21:03:21.284Z,19.67
2018-10-17T21:06:01.916Z,19.63
2018-10-17T21:08:30.819Z,23.90
2018-10-17T21:10:59.633Z,21.60
2018-10-17T21:13:34.631Z,24.37
2018-10-17T21:16:03.531Z,22.20
2018-10-17T21:18:32.516Z,19.30
2018-10-17T21:21:02.291Z,21.70
2018-10-17T21:23:31.128Z,19.37
2018-10-17T21:26:00.007Z,23.07
2018-10-17T21:28:42.277Z,18.73
2018-10-17T21:31:11.164Z,19.80
2018-10-17T21:33:45.524Z,19.03
2018-10-17T21:36:14.354Z,15.03
2018-10-17T21:38:45.228Z,19.50
2018-10-17T21:41:14.053Z,20.07
2018-10-17T21:44:03.660Z,31.73
2018-10-17T21:46:42.530Z,21.80
2018-10-17T21:49:11.381Z,27.37
2018-10-17T21:51:50.559Z,27.30
2018-10-17T21:54:43.925Z,23.00
2018-10-17T21:57:35.366Z,16.23
2018-10-17T22:05:58.431Z,14.47
2018-10-17T22:08:27.300Z,21.57
2018-10-17T22:10:56.135Z,16.73
2018-10-17T22:13:24.974Z,18.17
2018-10-17T22:15:53.819Z,21.47
2018-10-17T22:18:22.629Z,20.00
2018-10-17T22:20:51.478Z,17.30
2018-10-17T22:23:20.319Z,17.40
2018-10-17T22:25:49.184Z,19.53
2018-10-17T22:28:17.994Z,21.33
2018-10-17T22:30:47.423Z,18.97
2018-10-17T22:33:16.251Z,20.63
2018-10-17T22:38:45.673Z,18.40
2018-10-17T22:41:14.594Z,18.70
2018-10-17T22:43:43.345Z,16.53
2018-10-17T22:46:12.174Z,19.53
2018-10-17T22:48:40.987Z,20.13
2018-10-17T22:51:09.822Z,18.97
2018-10-17T22:53:38.625Z,19.47
2018-10-17T22:56:07.456Z,15.73
2018-10-17T22:58:36.251Z,19.23
2018-10-17T23:01:05.767Z,15.83
2018-10-17T23:03:34.587Z,18.87
2018-10-17T23:06:03.408Z,19.90
2018-10-17T23:08:32.221Z,20.17
2018-10-17T23:11:01.034Z,16.73
2018-10-17T23:13:29.854Z,19.13
2018-10-17T23:15:58.675Z,15.67
2018-10-17T23:18:27.496Z,16.23
2018-10-17T23:20:56.342Z,15.73
2018-10-17T23:23:25.202Z,17.43
2018-10-17T23:25:54.050Z,17.37
2018-10-17T23:28:22.867Z,18.40
2018-10-17T23:30:51.701Z,17.90
2018-10-17T23:33:20.519Z,14.83
2018-10-17T23:35:49.343Z,16.23
2018-10-17T23:38:18.343Z,17.57
2018-10-17T23:40:47.186Z,23.30
2018-10-17T23:43:15.993Z,22.40
2018-10-17T23:45:44.826Z,28.17
2018-10-17T23:48:13.668Z,20.40
2018-10-17T23:50:42.463Z,20.13
2018-10-17T23:53:11.264Z,18.13
2018-10-17T23:55:40.096Z,16.73
2018-10-17T23:58:08.910Z,17.13
